Time;durP1;ratioP1;P1;durP2;ratioP2;P2;SDS_P1;SDS_P2;PMS_P1;PMS_P2;Temp;Humidity;BMP_temperature;BMP_pressure;BME280_temperature;BME280_humidity;BME280_pressure;Samples;Min_cycle;Max_cycle;Signal;HPM_P1;HPM_P2
2021/11/10 00:00:31;;;;;;;32.70;18.42;;;;;;;2.61;78.73;95099.97;5007449;28;20030;-47
2021/11/10 00:02:57;;;;;;;24.40;13.18;;;;;;;2.68;77.98;95109.78;5009309;28;20053;-48
2021/11/10 00:05:23;;;;;;;22.55;13.90;;;;;;;2.67;77.79;95109.03;5009445;28;20045;-50
2021/11/10 00:07:48;;;;;;;20.45;13.25;;;;;;;2.62;79.17;95101.47;5010574;28;20030;-47
2021/11/10 00:10:14;;;;;;;19.23;12.05;;;;;;;2.63;79.10;95115.84;5010462;28;20026;-47
2021/11/10 00:12:40;;;;;;;18.85;11.02;;;;;;;2.47;78.52;95125.09;5010057;28;20022;-48
2021/11/10 00:15:08;;;;;;;11.90;8.15;;;;;;;2.41;78.50;95126.16;5010072;28;20506;-48
2021/11/10 00:17:33;;;;;;;9.02;6.07;;;;;;;2.27;78.89;95122.84;4992579;28;20492;-46
2021/11/10 00:19:59;;;;;;;7.00;4.93;;;;;;;1.87;80.08;95114.06;5010408;28;20021;-47
2021/11/10 00:22:27;;;;;;;12.75;6.30;;;;;;;1.72;81.79;95112.34;4992429;28;20396;-47
2021/11/10 00:24:53;;;;;;;8.90;6.25;;;;;;;1.82;81.16;95116.63;4992213;28;20030;-46
2021/11/10 00:27:19;;;;;;;5.18;3.90;;;;;;;1.99;80.50;95115.13;5008925;28;20495;-46
2021/11/10 00:29:45;;;;;;;8.18;2.72;;;;;;;2.00;80.87;95122.84;5013032;28;20080;-48
2021/11/10 00:32:10;;;;;;;11.75;3.42;;;;;;;1.93;80.39;95120.41;5008954;28;20022;-46
2021/11/10 00:34:36;;;;;;;5.88;3.42;;;;;;;1.94;80.21;95126.63;4991606;28;20125;-47
2021/11/10 00:37:01;;;;;;;4.57;3.10;;;;;;;2.06;80.50;95133.88;5009842;28;20026;-48
2021/11/10 00:39:27;;;;;;;4.55;3.33;;;;;;;2.03;80.29;95121.19;5010075;28;20026;-47
2021/11/10 00:41:52;;;;;;;4.47;3.30;;;;;;;1.97;80.99;95114.81;5009811;28;20026;-48
2021/11/10 00:44:17;;;;;;;5.47;2.50;;;;;;;1.93;80.20;95120.41;5010100;28;20096;-48
2021/11/10 00:46:43;;;;;;;14.85;7.95;;;;;;;2.05;81.01;95129.66;5020739;28;20498;-49
2021/11/10 00:49:08;;;;;;;30.88;15.35;;;;;;;2.08;80.81;95134.22;5029265;28;20037;-48
2021/11/10 00:51:34;;;;;;;25.30;12.05;;;;;;;2.21;80.71;95141.00;5032237;28;20037;-47
2021/11/10 00:53:59;;;;;;;33.08;14.30;;;;;;;2.26;79.93;95136.94;5033584;28;20051;-47
2021/11/10 00:56:25;;;;;;;17.40;10.90;;;;;;;2.20;80.29;95142.25;5033186;28;20489;-48
2021/11/10 00:58:50;;;;;;;17.13;11.10;;;;;;;2.15;80.36;95133.91;5032539;28;20021;-46
2021/11/10 01:01:16;;;;;;;17.05;9.88;;;;;;;1.89;82.23;95130.69;5032680;28;20043;-47
2021/11/10 01:03:41;;;;;;;15.45;10.23;;;;;;;1.93;81.96;95144.16;5021292;28;20037;-47
2021/11/10 01:06:07;;;;;;;13.45;6.97;;;;;;;2.02;81.55;95128.59;5013309;28;20030;-47
2021/11/10 01:08:32;;;;;;;9.23;5.97;;;;;;;2.20;81.16;95141.47;5013231;28;20037;-47
2021/11/10 01:10:58;;;;;;;12.20;6.45;;;;;;;2.16;79.87;95144.34;5013251;28;20025;-48
2021/11/10 01:13:24;;;;;;;12.43;6.70;;;;;;;2.08;80.40;95123.31;5013251;28;20033;-49
2021/11/10 01:15:50;;;;;;;10.50;7.15;;;;;;;2.27;80.28;95133.75;5013165;28;20036;-48
2021/11/10 01:18:15;;;;;;;12.77;6.43;;;;;;;2.41;79.36;95129.66;5013016;28;20029;-46
2021/11/10 01:20:41;;;;;;;7.45;4.65;;;;;;;2.10;79.93;95134.50;5013026;28;20117;-48
2021/11/10 01:23:08;;;;;;;8.60;5.38;;;;;;;2.21;79.92;95132.84;5011474;28;20037;-46
2021/11/10 01:25:35;;;;;;;18.70;7.47;;;;;;;2.26;79.43;95128.75;5012929;28;20033;-47
2021/11/10 01:28:00;;;;;;;13.02;7.85;;;;;;;2.15;79.51;95134.66;4995762;28;20030;-47
2021/11/10 01:30:26;;;;;;;11.65;7.43;;;;;;;2.33;79.50;95141.31;5012801;28;20053;-47
2021/11/10 01:32:51;;;;;;;10.07;6.25;;;;;;;2.19;79.55;95140.72;5012721;28;20022;-47
2021/11/10 01:35:17;;;;;;;7.75;5.18;;;;;;;2.31;80.44;95136.34;5012713;28;20038;-48
2021/11/10 01:37:44;;;;;;;10.43;7.38;;;;;;;2.40;79.84;95143.75;5012714;28;20040;-47
2021/11/10 01:40:14;;;;;;;15.50;9.00;;;;;;;2.53;78.79;95142.38;5012922;28;20044;-47
2021/11/10 01:42:42;;;;;;;16.50;10.63;;;;;;;2.35;79.06;95136.16;5012710;28;20094;-48
2021/11/10 01:45:08;;;;;;;30.17;20.05;;;;;;;2.24;80.45;95148.28;5012550;28;20030;-48
2021/11/10 01:47:34;;;;;;;21.90;13.98;;;;;;;2.12;81.32;95141.00;5011490;28;20034;-47
2021/11/10 01:50:00;;;;;;;13.20;9.18;;;;;;;2.10;81.70;95148.88;4995248;28;20053;-49
2021/11/10 01:52:26;;;;;;;10.32;6.20;;;;;;;2.31;81.22;95158.13;5012785;28;20033;-48
2021/11/10 01:54:51;;;;;;;17.02;8.48;;;;;;;2.29;82.22;95149.66;5012371;28;20466;-48
2021/11/10 01:57:17;;;;;;;13.68;6.65;;;;;;;2.43;81.29;95149.03;5012532;28;20025;-48
2021/11/10 01:59:45;;;;;;;12.23;7.30;;;;;;;2.51;80.43;95144.81;5012643;28;20100;-49
2021/11/10 02:02:30;;;;;;;13.23;7.93;;;;;;;2.18;80.97;95141.19;5011508;28;20133;-48
2021/11/10 02:04:56;;;;;;;13.65;8.07;;;;;;;2.10;81.55;95148.13;5012236;28;20032;-49
2021/11/10 02:07:21;;;;;;;12.20;8.18;;;;;;;2.28;82.20;95150.84;5012005;28;20032;-47
2021/11/10 02:09:49;;;;;;;15.65;8.93;;;;;;;2.41;82.35;95153.44;5012111;28;20051;-49
2021/11/10 02:12:19;;;;;;;18.75;11.45;;;;;;;2.50;81.28;95153.44;5011177;28;20018;-46
2021/11/10 02:14:45;;;;;;;18.38;10.60;;;;;;;2.54;80.69;95149.34;5012314;28;20149;-47
2021/11/10 02:17:19;;;;;;;11.35;7.20;;;;;;;2.76;80.02;95149.16;5011873;28;20664;-46
2021/11/10 02:19:45;;;;;;;11.68;6.93;;;;;;;2.81;79.72;95143.09;5012232;28;20034;-46
2021/11/10 02:22:13;;;;;;;8.80;5.50;;;;;;;2.86;80.01;95158.84;5014003;28;20040;-47
2021/11/10 02:24:39;;;;;;;7.97;4.80;;;;;;;2.92;80.47;95148.84;5031992;28;20395;-46
2021/11/10 02:27:14;;;;;;;14.77;7.18;;;;;;;3.10;81.37;95154.25;5031496;28;20091;-46
2021/11/10 02:29:40;;;;;;;23.38;11.00;;;;;;;3.15;81.17;95147.41;5031704;28;20049;-46
2021/11/10 02:32:08;;;;;;;16.80;7.75;;;;;;;3.09;79.58;95152.75;5031540;28;20412;-47
2021/11/10 02:34:36;;;;;;;19.27;9.75;;;;;;;2.80;80.82;95150.53;5012574;28;20520;-47
2021/11/10 02:37:02;;;;;;;13.27;7.72;;;;;;;2.68;81.45;95153.44;4977811;28;20418;-46
2021/11/10 02:39:28;;;;;;;14.05;7.45;;;;;;;2.85;82.15;95149.91;5011675;28;20036;-46
2021/11/10 02:41:54;;;;;;;12.05;6.53;;;;;;;2.93;82.30;95159.28;4994132;28;20057;-47
2021/11/10 02:44:21;;;;;;;15.98;9.52;;;;;;;3.03;82.79;95160.03;5011953;28;20116;-46
2021/11/10 02:46:48;;;;;;;24.70;14.30;;;;;;;3.18;82.68;95163.66;5011713;28;20045;-48
2021/11/10 02:49:13;;;;;;;18.65;9.95;;;;;;;3.26;81.13;95153.13;5011549;28;20104;-47
2021/11/10 02:51:58;;;;;;;18.92;11.68;;;;;;;3.37;79.84;95148.72;5011628;28;20040;-48
2021/11/10 02:54:25;;;;;;;21.02;12.52;;;;;;;3.28;79.66;95156.16;5010544;28;20041;-49
2021/11/10 02:56:53;;;;;;;20.35;12.55;;;;;;;3.35;80.28;95155.84;5010897;28;20045;-48
2021/11/10 02:59:18;;;;;;;18.98;10.63;;;;;;;3.51;80.91;95163.69;5011417;28;20144;-48
2021/11/10 03:01:44;;;;;;;22.25;13.05;;;;;;;3.54;80.20;95162.75;5010920;28;20598;-47
2021/11/10 03:04:25;;;;;;;31.02;17.23;;;;;;;3.54;79.56;95160.78;5010917;28;20029;-48
2021/11/10 03:06:52;;;;;;;40.00;18.05;;;;;;;3.29;80.71;95157.69;5011432;28;20579;-47
2021/11/10 03:09:19;;;;;;;15.40;10.02;;;;;;;3.17;80.84;95158.63;5010821;28;20565;-48
2021/11/10 03:11:45;;;;;;;18.45;12.48;;;;;;;3.33;80.76;95166.47;5011332;28;20084;-50
2021/11/10 03:14:11;;;;;;;19.58;11.68;;;;;;;3.46;80.56;95164.31;5010207;28;20492;-46
2021/11/10 03:16:37;;;;;;;16.75;10.30;;;;;;;3.27;80.30;95138.28;5010318;28;20545;-46
2021/11/10 03:19:02;;;;;;;13.70;8.57;;;;;;;3.45;80.00;95169.00;5010608;28;20034;-47
2021/11/10 03:21:28;;;;;;;16.85;8.65;;;;;;;3.47;79.94;95163.06;5011047;28;20487;-51
2021/11/10 03:23:53;;;;;;;10.23;7.90;;;;;;;3.51;79.71;95166.41;5011011;28;20499;-48
2021/11/10 03:26:20;;;;;;;9.25;7.18;;;;;;;3.42;80.49;95161.72;5010713;28;20030;-52
2021/11/10 03:28:46;;;;;;;12.45;7.65;;;;;;;3.52;81.14;95167.91;5010707;28;20030;-52
2021/11/10 03:31:11;;;;;;;10.85;8.15;;;;;;;3.66;81.02;95159.06;5010604;28;20025;-48
2021/11/10 03:33:36;;;;;;;9.02;6.22;;;;;;;3.71;80.08;95161.16;5010806;28;20037;-52
2021/11/10 03:36:02;;;;;;;10.60;6.55;;;;;;;3.63;80.43;95160.75;5009712;28;20034;-52
2021/11/10 03:38:28;;;;;;;8.63;5.45;;;;;;;3.71;79.35;95158.41;5010578;28;20396;-49
2021/11/10 03:40:53;;;;;;;12.80;6.95;;;;;;;3.72;79.45;95157.97;5010841;28;20112;-48
2021/11/10 03:43:19;;;;;;;10.07;7.70;;;;;;;3.88;78.69;95147.88;5010406;28;20053;-47
2021/11/10 03:45:44;;;;;;;13.82;8.85;;;;;;;3.81;78.65;95149.72;5010773;28;20029;-48
2021/11/10 03:48:12;;;;;;;10.18;8.27;;;;;;;3.81;78.93;95146.25;5010715;28;20506;-47
2021/11/10 03:50:38;;;;;;;8.70;5.75;;;;;;;3.75;80.17;95148.06;5010412;28;20064;-47
2021/11/10 03:53:04;;;;;;;10.75;7.78;;;;;;;3.86;79.81;95153.78;5010200;28;20025;-47
2021/11/10 03:55:36;;;;;;;12.07;7.32;;;;;;;3.78;78.89;95156.13;5010197;28;20415;-47
2021/11/10 03:58:06;;;;;;;9.52;5.80;;;;;;;3.67;78.87;95155.88;5010279;28;20591;-48
2021/11/10 04:00:32;;;;;;;8.27;5.25;;;;;;;3.56;78.84;95165.78;5010387;28;20117;-48
2021/11/10 04:02:57;;;;;;;7.68;5.72;;;;;;;3.60;79.47;95158.16;5009712;28;20124;-49
2021/11/10 04:05:23;;;;;;;7.65;6.40;;;;;;;3.65;79.55;95155.56;5009945;28;20237;-48
2021/11/10 04:07:48;;;;;;;9.27;6.63;;;;;;;3.82;79.23;95153.97;5010220;28;20088;-47
2021/11/10 04:10:14;;;;;;;9.57;7.03;;;;;;;3.91;79.08;95153.16;5008594;28;20084;-48
2021/11/10 04:12:40;;;;;;;8.13;6.00;;;;;;;3.88;79.15;95156.06;5008966;28;20090;-50
2021/11/10 04:15:06;;;;;;;8.48;6.40;;;;;;;3.63;79.51;95138.13;5009202;28;20201;-49
2021/11/10 04:17:32;;;;;;;9.27;5.93;;;;;;;3.83;80.18;95154.72;4992630;28;20030;-51
2021/11/10 04:19:57;;;;;;;11.13;6.90;;;;;;;3.82;80.09;95156.69;5008506;28;20026;-50
2021/11/10 04:22:23;;;;;;;10.80;6.97;;;;;;;4.02;79.26;95156.13;5008567;28;20089;-50
2021/11/10 04:24:50;;;;;;;6.60;5.07;;;;;;;4.05;79.23;95160.66;5009917;28;20034;-49
2021/11/10 04:27:18;;;;;;;6.65;5.28;;;;;;;3.59;79.05;95118.44;5011638;28;20519;-49
2021/11/10 04:29:44;;;;;;;6.60;4.82;;;;;;;3.92;78.88;95165.59;5012169;28;20105;-48
2021/11/10 04:32:09;;;;;;;7.35;5.07;;;;;;;3.97;79.10;95167.69;5012158;28;20032;-48
2021/11/10 04:34:35;;;;;;;7.28;5.38;;;;;;;4.08;78.60;95172.63;5013399;28;20084;-46
2021/11/10 04:37:00;;;;;;;10.55;5.93;;;;;;;4.20;77.80;95158.72;5013793;28;20022;-49
2021/11/10 04:39:26;;;;;;;8.55;6.18;;;;;;;4.27;78.22;95158.38;5013949;28;20030;-48
2021/11/10 04:41:51;;;;;;;10.50;6.72;;;;;;;4.21;77.92;95171.19;5013802;28;20022;-47
2021/11/10 04:44:17;;;;;;;11.15;7.88;;;;;;;4.27;77.65;95166.59;5012399;28;20029;-47
2021/11/10 04:46:42;;;;;;;11.38;6.50;;;;;;;4.32;78.13;95165.94;5013959;28;20033;-48
2021/11/10 04:49:08;;;;;;;11.38;6.70;;;;;;;4.00;79.17;95158.56;5013828;28;20547;-47
2021/11/10 04:51:34;;;;;;;11.23;7.70;;;;;;;4.05;79.99;95157.91;5013476;28;20518;-48
2021/11/10 04:54:07;;;;;;;13.30;9.48;;;;;;;4.09;79.64;95161.25;5013612;28;20067;-49
2021/11/10 04:56:33;;;;;;;14.60;10.20;;;;;;;4.06;79.50;95164.91;5013836;28;20037;-48
2021/11/10 04:58:58;;;;;;;22.52;13.90;;;;;;;4.10;79.64;95160.03;5012234;28;20033;-48
2021/11/10 05:01:26;;;;;;;24.27;15.60;;;;;;;4.00;79.59;95155.84;5013242;28;20046;-50
2021/11/10 05:03:53;;;;;;;31.60;20.95;;;;;;;3.95;79.94;95156.47;5013331;28;20026;-48
2021/11/10 05:06:20;;;;;;;136.93;19.50;;;;;;;4.12;79.66;95157.56;5013642;28;20033;-47
2021/11/10 05:08:46;;;;;;;19.65;14.57;;;;;;;4.15;79.91;95156.66;5013274;28;20037;-48
2021/11/10 05:11:12;;;;;;;22.88;14.88;;;;;;;4.16;80.10;95155.41;5012615;28;20030;-47
2021/11/10 05:13:37;;;;;;;31.73;20.73;;;;;;;4.14;80.21;95157.09;5012621;28;20029;-49
2021/11/10 05:16:03;;;;;;;26.13;17.73;;;;;;;4.19;80.51;95151.75;5013110;28;20029;-51
2021/11/10 05:18:28;;;;;;;19.83;14.63;;;;;;;4.30;79.92;95162.94;5013360;28;20032;-50
2021/11/10 05:20:54;;;;;;;23.08;16.52;;;;;;;4.27;80.37;95157.63;5013013;28;20022;-48
2021/11/10 05:23:20;;;;;;;25.60;16.88;;;;;;;4.16;80.45;95152.69;5012600;28;20048;-50
2021/11/10 05:25:46;;;;;;;52.45;31.92;;;;;;;4.07;80.74;95160.19;5011944;28;20025;-48
2021/11/10 05:28:11;;;;;;;124.07;75.82;;;;;;;4.11;80.55;95160.78;5013211;28;20580;-47
2021/11/10 05:30:37;;;;;;;51.47;31.73;;;;;;;4.23;81.11;95162.50;5012956;28;20061;-50
2021/11/10 05:33:04;;;;;;;49.25;30.85;;;;;;;4.34;80.13;95165.47;5012648;28;20013;-49
2021/11/10 05:35:29;;;;;;;49.67;29.35;;;;;;;4.20;80.45;95153.25;5012264;28;20036;-48
2021/11/10 05:37:55;;;;;;;39.10;22.52;;;;;;;4.39;80.18;95156.63;5011473;28;20017;-47
2021/11/10 05:40:20;;;;;;;61.45;36.47;;;;;;;4.38;80.63;95166.06;5012668;28;20040;-48
2021/11/10 05:42:46;;;;;;;63.45;37.90;;;;;;;4.45;80.18;95166.47;5012510;28;20030;-48
2021/11/10 05:45:11;;;;;;;55.28;34.60;;;;;;;4.29;81.22;95166.88;5012785;28;20022;-48
2021/11/10 05:47:37;;;;;;;31.77;21.17;;;;;;;4.37;80.87;95176.25;5011711;28;20430;-49
2021/11/10 05:50:05;;;;;;;54.35;30.15;;;;;;;4.38;80.77;95185.97;5011630;28;20061;-48
2021/11/10 05:52:31;;;;;;;36.80;28.00;;;;;;;4.48;80.27;95179.19;5012438;28;20029;-46
2021/11/10 05:54:56;;;;;;;20.58;16.10;;;;;;;4.60;80.26;95185.63;5012724;28;20030;-47
2021/11/10 05:57:22;;;;;;;21.10;13.95;;;;;;;4.56;80.25;95190.53;5011155;28;20084;-48
2021/11/10 05:59:47;;;;;;;18.50;12.70;;;;;;;4.37;80.86;95189.94;5012607;28;20087;-47
2021/11/10 06:02:13;;;;;;;14.05;10.75;;;;;;;4.32;81.37;95189.78;5011939;28;20427;-47
2021/11/10 06:04:39;;;;;;;12.05;8.77;;;;;;;4.47;81.62;95198.81;5011597;28;20030;-48
2021/11/10 06:07:09;;;;;;;11.55;8.45;;;;;;;4.32;81.95;95198.00;4994082;28;20079;-46
2021/11/10 06:09:35;;;;;;;11.25;7.90;;;;;;;4.41;82.03;95204.19;5012606;28;20438;-46
2021/11/10 06:12:00;;;;;;;12.07;8.52;;;;;;;4.69;81.28;95199.25;5009043;28;20157;-46
2021/11/10 06:14:26;;;;;;;23.23;13.05;;;;;;;4.79;81.25;95202.66;5023996;28;20037;-44
2021/11/10 06:16:51;;;;;;;30.02;17.85;;;;;;;4.96;80.67;95214.69;5030028;28;20041;-49
2021/11/10 06:19:17;;;;;;;93.07;54.35;;;;;;;4.83;80.73;95212.19;5025474;28;20129;-47
2021/11/10 06:21:42;;;;;;;30.70;19.80;;;;;;;4.99;80.73;95209.03;5009534;28;20037;-47
2021/11/10 06:24:08;;;;;;;31.05;20.55;;;;;;;5.18;80.06;95215.09;5027587;28;20032;-47
2021/11/10 06:26:34;;;;;;;22.05;13.70;;;;;;;5.40;78.98;95220.94;5029232;28;20135;-47
2021/11/10 06:28:59;;;;;;;30.73;18.73;;;;;;;5.25;78.84;95195.56;5013248;28;20049;-46
2021/11/10 06:31:25;;;;;;;29.02;18.17;;;;;;;5.48;78.27;95215.88;5008441;28;20029;-46
2021/11/10 06:33:50;;;;;;;15.32;10.25;;;;;;;5.57;78.25;95219.25;5008589;28;20029;-46
2021/11/10 06:36:16;;;;;;;10.40;7.05;;;;;;;5.73;76.59;95216.03;5008931;28;20092;-46
2021/11/10 06:38:44;;;;;;;9.05;6.40;;;;;;;5.91;75.17;95220.56;5008635;28;20495;-47
2021/11/10 06:41:10;;;;;;;13.63;8.73;;;;;;;6.01;75.19;95224.72;5008724;28;20532;-48
2021/11/10 06:43:35;;;;;;;28.73;16.73;;;;;;;6.09;75.82;95234.81;5008272;28;20068;-50
2021/11/10 06:46:01;;;;;;;39.35;23.70;;;;;;;6.21;75.72;95224.00;5009069;28;20137;-49
2021/11/10 06:48:27;;;;;;;30.35;16.05;;;;;;;6.36;74.42;95227.44;5009118;28;20045;-48
2021/11/10 06:50:52;;;;;;;22.50;12.90;;;;;;;6.40;73.61;95228.75;5008712;28;20502;-47
2021/11/10 06:53:18;;;;;;;18.58;11.00;;;;;;;6.43;73.34;95227.78;4991095;28;20034;-55
2021/11/10 06:55:43;;;;;;;19.15;13.30;;;;;;;6.54;72.62;95222.44;5008105;28;20446;-47
2021/11/10 06:58:09;;;;;;;16.27;9.85;;;;;;;6.62;73.22;95225.56;5008587;28;20041;-47
2021/11/10 07:00:34;;;;;;;17.98;10.55;;;;;;;6.61;73.62;95208.31;5008227;28;20774;-45
2021/11/10 07:03:00;;;;;;;18.17;9.95;;;;;;;6.87;72.85;95224.84;4992491;28;20046;-48
2021/11/10 07:05:26;;;;;;;13.63;7.90;;;;;;;7.04;72.58;95222.31;5007978;28;20038;-49
2021/11/10 07:07:51;;;;;;;14.15;9.32;;;;;;;7.23;72.20;95216.03;5008244;28;20123;-49
2021/11/10 07:10:17;;;;;;;23.55;12.85;;;;;;;7.32;71.75;95224.09;5007864;28;20038;-49
2021/11/10 07:12:42;;;;;;;26.85;13.00;;;;;;;7.47;71.19;95226.75;5007063;28;20022;-49
2021/11/10 07:15:08;;;;;;;18.25;10.13;;;;;;;7.62;69.81;95225.38;5008402;28;20041;-49
2021/11/10 07:17:34;;;;;;;19.80;12.77;;;;;;;7.57;69.84;95226.09;5007916;28;20034;-49
2021/11/10 07:19:59;;;;;;;16.50;9.57;;;;;;;7.74;70.23;95222.72;5006952;28;20041;-47
2021/11/10 07:22:25;;;;;;;12.10;7.43;;;;;;;7.92;69.48;95222.38;5011285;28;20029;-47
2021/11/10 07:24:50;;;;;;;21.95;11.73;;;;;;;8.11;68.63;95220.75;5027563;28;20029;-45
2021/11/10 07:27:16;;;;;;;13.40;8.20;;;;;;;8.21;68.22;95225.56;5026840;28;20411;-52
2021/11/10 07:29:42;;;;;;;16.55;10.30;;;;;;;8.35;67.44;95221.19;5027234;28;20033;-50
2021/11/10 07:32:07;;;;;;;14.57;7.82;;;;;;;8.28;66.90;95213.41;5027053;28;20056;-51
2021/11/10 07:34:33;;;;;;;14.77;7.53;;;;;;;8.22;66.21;95221.59;5009439;28;20743;-49
2021/11/10 07:36:59;;;;;;;13.35;7.40;;;;;;;7.87;66.40;95231.31;5007132;28;20037;-51
2021/11/10 07:39:25;;;;;;;33.88;19.10;;;;;;;8.01;68.41;95220.19;5007240;28;20064;-51
2021/11/10 07:41:51;;;;;;;16.92;10.38;;;;;;;8.26;68.50;95221.38;5007444;28;20112;-47
2021/11/10 07:44:17;;;;;;;10.90;8.60;;;;;;;8.26;68.17;95224.91;5007296;28;20061;-47
2021/11/10 07:46:51;;;;;;;9.63;7.10;;;;;;;8.44;66.59;95220.25;5007319;28;20030;-51
2021/11/10 07:49:21;;;;;;;9.15;6.55;;;;;;;8.15;65.91;95224.03;5007345;28;20029;-55
2021/11/10 07:51:46;;;;;;;7.47;5.43;;;;;;;8.24;66.85;95218.34;5007412;28;20041;-49
2021/11/10 07:54:13;;;;;;;7.75;4.90;;;;;;;8.37;67.11;95224.22;5007161;28;20439;-54
2021/11/10 07:56:38;;;;;;;8.35;4.20;;;;;;;8.45;64.51;95230.75;5007085;28;20033;-45
2021/11/10 07:59:04;;;;;;;3.20;2.60;;;;;;;8.24;64.28;95227.34;5006315;28;20022;-48
2021/11/10 08:01:30;;;;;;;2.00;1.90;;;;;;;8.38;61.76;95220.22;5006636;28;20053;-48
2021/11/10 08:03:59;;;;;;;2.15;1.95;;;;;;;8.04;62.00;95221.19;5020199;28;20260;-47
2021/11/10 08:06:24;;;;;;;3.95;2.20;;;;;;;8.02;61.81;95221.69;5027383;28;20442;-49
2021/11/10 08:08:50;;;;;;;2.95;2.50;;;;;;;8.17;61.71;95216.03;5027050;28;20045;-48
2021/11/10 08:11:17;;;;;;;1.98;1.60;;;;;;;8.42;60.13;95220.00;5026963;28;20517;-58
2021/11/10 08:13:42;;;;;;;1.85;1.73;;;;;;;8.67;60.60;95219.88;5026686;28;20538;-48
2021/11/10 08:16:08;;;;;;;2.00;1.80;;;;;;;8.88;58.09;95217.72;5026718;28;20082;-47
2021/11/10 08:18:33;;;;;;;4.60;2.05;;;;;;;8.89;59.36;95227.47;5026670;28;20140;-49
2021/11/10 08:20:59;;;;;;;2.10;1.90;;;;;;;9.11;58.50;95222.81;5026180;28;20039;-45
2021/11/10 08:23:26;;;;;;;2.88;2.15;;;;;;;9.85;57.33;95222.44;5014216;28;20038;-47
2021/11/10 08:25:54;;;;;;;1.38;1.25;;;;;;;10.57;52.63;95222.38;5007355;28;20033;-46
2021/11/10 08:28:20;;;;;;;2.92;1.88;;;;;;;11.16;50.02;95225.44;5007653;28;20037;-48
2021/11/10 08:30:46;;;;;;;1.83;1.50;;;;;;;10.91;49.71;95223.78;5007417;28;20112;-45
2021/11/10 08:33:12;;;;;;;1.58;1.40;;;;;;;11.07;49.19;95234.00;5006700;28;20040;-45
2021/11/10 08:35:37;;;;;;;2.08;1.30;;;;;;;11.86;47.89;95210.97;5006759;28;20168;-45
2021/11/10 08:38:03;;;;;;;1.50;1.40;;;;;;;12.78;45.66;95214.63;5007215;28;20041;-50
2021/11/10 08:40:29;;;;;;;1.48;1.38;;;;;;;13.22;43.58;95221.72;5006877;28;20461;-52
2021/11/10 08:42:54;;;;;;;1.60;1.25;;;;;;;13.62;42.47;95215.13;5006151;28;20026;-47
2021/11/10 08:45:24;;;;;;;1.50;1.40;;;;;;;13.94;41.04;95215.91;5006443;28;20026;-47
2021/11/10 08:47:51;;;;;;;1.35;1.23;;;;;;;14.37;39.74;95215.75;5006438;28;20499;-48
2021/11/10 08:50:21;;;;;;;2.28;1.27;;;;;;;15.27;40.23;95190.53;4993736;28;20042;-47
2021/11/10 08:52:47;;;;;;;1.30;1.20;;;;;;;15.46;37.45;95214.19;4987249;28;20233;-49
2021/11/10 08:55:15;;;;;;;1.38;1.17;;;;;;;14.53;38.16;95211.91;4999448;28;20664;-49
2021/11/10 08:57:41;;;;;;;1.75;1.30;;;;;;;14.47;38.85;95208.47;5006649;28;20117;-46
2021/11/10 09:00:09;;;;;;;4.78;1.38;;;;;;;13.86;40.48;95203.16;5006376;28;20118;-48
2021/11/10 09:02:35;;;;;;;1.98;1.50;;;;;;;13.19;40.55;95197.81;5008681;28;20064;-47
2021/11/10 09:05:02;;;;;;;1.52;1.40;;;;;;;12.88;41.42;95204.72;5026418;28;20029;-50
2021/11/10 09:07:28;;;;;;;1.65;1.33;;;;;;;13.61;41.38;95197.72;5026135;28;20099;-49
2021/11/10 09:09:53;;;;;;;1.23;1.10;;;;;;;14.00;39.79;95194.34;5026129;28;20068;-53
2021/11/10 09:12:19;;;;;;;1.30;1.20;;;;;;;13.40;40.46;95196.75;5027905;28;20056;-44
2021/11/10 09:14:44;;;;;;;2.90;1.55;;;;;;;13.09;41.29;95191.88;5029391;28;20120;-47
2021/11/10 09:17:12;;;;;;;1.85;1.60;;;;;;;12.57;43.41;95188.66;5029261;28;20037;-45
2021/11/10 09:19:39;;;;;;;2.17;1.40;;;;;;;12.73;41.77;95184.97;5028217;28;20037;-44
2021/11/10 09:22:05;;;;;;;3.05;1.67;;;;;;;13.24;41.42;95178.31;5028456;28;20037;-44
2021/11/10 09:24:30;;;;;;;2.00;1.90;;;;;;;14.00;40.65;95165.81;5010245;28;20088;-44
2021/11/10 09:26:55;;;;;;;1.65;1.55;;;;;;;14.09;40.34;95165.44;5010160;28;20033;-45
2021/11/10 09:29:21;;;;;;;2.58;1.70;;;;;;;15.16;39.67;95161.63;5009895;28;20034;-45
2021/11/10 09:31:48;;;;;;;1.52;1.42;;;;;;;15.94;35.76;95180.16;5009406;28;20084;-45
2021/11/10 09:34:14;;;;;;;2.10;1.63;;;;;;;15.82;36.19;95180.97;5009215;28;20037;-44
2021/11/10 09:36:47;;;;;;;2.10;1.58;;;;;;;16.62;35.57;95169.63;5009203;28;20049;-46
2021/11/10 09:39:22;;;;;;;2.08;1.33;;;;;;;17.16;33.42;95163.03;5009432;28;20040;-44
2021/11/10 09:41:50;;;;;;;1.52;1.42;;;;;;;16.71;33.80;95162.03;5009516;28;20056;-46
2021/11/10 09:44:16;;;;;;;1.40;1.30;;;;;;;15.10;35.76;95169.34;4991657;28;20092;-43
2021/11/10 09:46:42;;;;;;;1.58;1.48;;;;;;;15.97;35.85;95156.03;5009733;28;20034;-46
2021/11/10 09:49:10;;;;;;;2.10;1.60;;;;;;;16.04;34.64;95154.63;5010039;28;20037;-47
2021/11/10 09:51:36;;;;;;;2.05;1.77;;;;;;;16.22;35.09;95148.09;5009280;28;20025;-45
2021/11/10 09:54:05;;;;;;;4.90;2.05;;;;;;;16.63;34.15;95148.06;5009175;28;20032;-52
2021/11/10 09:56:32;;;;;;;2.17;1.90;;;;;;;16.98;33.53;95143.81;5009142;28;20033;-59
2021/11/10 09:58:57;;;;;;;2.17;1.98;;;;;;;17.15;33.26;95141.28;5009444;28;20163;-56
2021/11/10 10:01:23;;;;;;;1.63;1.52;;;;;;;16.74;32.24;95138.63;5008891;28;20429;-55
2021/11/10 10:03:52;;;;;;;1.60;1.50;;;;;;;17.14;31.65;95134.94;5008374;28;20040;-56
2021/11/10 10:06:18;;;;;;;2.13;1.92;;;;;;;16.90;33.10;95132.59;5008713;28;20104;-56
2021/11/10 10:08:44;;;;;;;1.48;1.38;;;;;;;17.49;32.16;95138.22;5008938;28;20057;-57
2021/11/10 10:11:11;;;;;;;2.33;1.67;;;;;;;17.64;31.87;95125.09;5009171;28;20060;-55
2021/11/10 10:13:36;;;;;;;1.60;1.50;;;;;;;16.96;31.80;95118.47;5009354;28;20037;-56
2021/11/10 10:16:02;;;;;;;2.55;2.00;;;;;;;17.55;31.47;95117.22;5009298;28;20033;-51
2021/11/10 10:18:29;;;;;;;5.57;1.88;;;;;;;18.26;29.68;95115.47;5008989;28;20061;-50
2021/11/10 10:21:00;;;;;;;1.30;1.20;;;;;;;17.97;30.17;95115.66;5009015;28;20033;-43
2021/11/10 10:23:32;;;;;;;2.00;1.80;;;;;;;17.70;30.60;95108.88;5020829;28;20507;-57
2021/11/10 10:26:17;;;;;;;1.98;1.83;;;;;;;17.62;30.87;95093.41;5015360;28;20034;-47
2021/11/10 10:28:46;;;;;;;1.70;1.60;;;;;;;17.66;31.15;95091.00;5004280;28;20068;-44
2021/11/10 10:31:12;;;;;;;;;;;;;;;17.55;30.57;95092.09;5010128;28;20029;-46
2021/11/10 10:33:43;;;;;;;5.03;2.28;;;;;;;16.98;32.50;95079.63;5010875;28;19920;-47
2021/11/10 10:36:14;;;;;;;1.58;1.48;;;;;;;17.37;31.24;95084.75;5011871;28;20065;-47
2021/11/10 10:38:48;;;;;;;1.75;1.63;;;;;;;17.28;31.68;95079.72;5011816;28;20525;-46
2021/11/10 10:41:15;;;;;;;2.38;1.80;;;;;;;17.07;31.54;95070.69;4995666;28;20041;-48
2021/11/10 10:43:47;;;;;;;3.15;1.40;;;;;;;17.70;32.04;95071.81;4991526;28;20074;-46
2021/11/10 10:46:14;;;;;;;3.75;1.90;;;;;;;17.84;30.28;95062.72;4993576;28;20026;-46
2021/11/10 10:48:40;;;;;;;2.83;1.75;;;;;;;17.05;31.42;95067.72;5001074;28;20438;-47
2021/11/10 10:51:14;;;;;;;1.88;1.70;;;;;;;17.32;31.07;95068.94;5010046;28;20099;-46
2021/11/10 10:54:00;;;;;;;2.67;1.90;;;;;;;17.50;30.97;95047.56;5011039;28;20072;-46
2021/11/10 10:56:29;;;;;;;2.42;1.45;;;;;;;17.73;31.39;95057.50;4993220;28;20040;-47
2021/11/10 10:59:15;;;;;;;2.15;1.90;;;;;;;17.28;31.59;95049.03;5010620;28;20067;-45
2021/11/10 11:01:50;;;;;;;2.10;1.90;;;;;;;17.22;31.60;95056.81;5010387;28;20115;-46
2021/11/10 11:04:18;;;;;;;2.00;1.77;;;;;;;16.96;32.57;95038.31;5011123;28;20054;-47
2021/11/10 11:06:45;;;;;;;1.95;1.85;;;;;;;17.51;31.49;95035.13;5011240;28;20109;-48
2021/11/10 11:09:19;;;;;;;1.60;1.50;;;;;;;17.73;29.95;95045.56;5005682;28;20515;-46
2021/11/10 11:12:03;;;;;;;1.80;1.70;;;;;;;17.01;30.91;95047.81;5011201;28;20517;-46
2021/11/10 11:14:44;;;;;;;3.30;1.75;;;;;;;16.95;32.28;95033.28;5011441;28;20021;-47
2021/11/10 11:17:20;;;;;;;3.42;2.58;;;;;;;17.34;32.77;95044.00;5002793;28;20026;-47
2021/11/10 11:19:57;;;;;;;2.72;1.80;;;;;;;17.65;30.72;95044.84;4998637;28;20145;-46
2021/11/10 11:22:32;;;;;;;3.17;2.10;;;;;;;17.04;31.60;95030.72;5004722;28;20049;-43
2021/11/10 11:25:16;;;;;;;2.03;1.70;;;;;;;16.43;33.41;95046.41;5008935;28;20025;-44
2021/11/10 11:27:57;;;;;;;1.75;1.60;;;;;;;15.81;32.91;95038.16;4991506;28;20088;-50
2021/11/10 11:30:28;;;;;;;2.13;1.92;;;;;;;15.35;35.27;95047.41;4991369;28;20030;-45